Time;durP1;ratioP1;P1;durP2;ratioP2;P2;SDS_P1;SDS_P2;PMS_P1;PMS_P2;Temp;Humidity;BMP_temperature;BMP_pressure;BME280_temperature;BME280_humidity;BME280_pressure;Samples;Min_cycle;Max_cycle;Signal;HPM_P1;HPM_P2
2022/09/06 00:00:39;;;;;;;6.05;4.38;;;19.60;94.30;;;;;;5076075;28;20200;-83
2022/09/06 00:03:07;;;;;;;6.00;4.22;;;19.50;94.30;;;;;;5057684;28;20254;-84
2022/09/06 00:05:33;;;;;;;5.55;4.10;;;19.50;94.30;;;;;;5058131;28;20625;-83
2022/09/06 00:08:01;;;;;;;4.50;4.10;;;19.50;94.40;;;;;;5076041;28;20174;-84
2022/09/06 00:10:29;;;;;;;4.43;4.03;;;19.50;94.30;;;;;;5057681;28;20580;-84
2022/09/06 00:12:54;;;;;;;4.82;4.25;;;19.40;94.30;;;;;;5075835;28;20183;-84
2022/09/06 00:15:21;;;;;;;4.55;4.10;;;19.40;94.30;;;;;;5057825;28;20174;-83
2022/09/06 00:17:47;;;;;;;5.75;4.07;;;19.40;94.30;;;;;;5057667;28;20267;-82
2022/09/06 00:20:13;;;;;;;8.55;4.15;;;19.30;94.30;;;;;;5075762;28;20223;-84
2022/09/06 00:22:39;;;;;;;6.63;4.00;;;19.30;94.20;;;;;;5075682;28;20600;-84
2022/09/06 00:25:06;;;;;;;4.38;3.90;;;19.20;94.30;;;;;;5075527;28;20192;-84
2022/09/06 00:27:32;;;;;;;7.57;4.47;;;19.30;94.30;;;;;;5057364;28;20177;-83
2022/09/06 00:29:58;;;;;;;4.70;3.75;;;19.20;94.20;;;;;;5068804;28;20236;-84
2022/09/06 00:32:23;;;;;;;6.03;4.43;;;19.20;94.30;;;;;;5037111;28;20593;-83
2022/09/06 00:34:49;;;;;;;4.20;3.65;;;19.20;94.20;;;;;;5055364;28;20171;-84
2022/09/06 00:37:15;;;;;;;4.35;3.83;;;19.10;94.40;;;;;;5055417;28;20549;-84
2022/09/06 00:39:40;;;;;;;7.22;3.80;;;19.10;94.30;;;;;;5037398;28;20201;-84
2022/09/06 00:42:11;;;;;;;6.70;3.90;;;19.10;94.10;;;;;;5037434;28;20521;-84
2022/09/06 00:44:37;;;;;;;5.15;4.00;;;19.10;94.20;;;;;;5054987;28;20177;-84
2022/09/06 00:47:05;;;;;;;4.65;3.50;;;19.10;94.20;;;;;;5037123;28;20524;-85
2022/09/06 00:49:38;;;;;;;5.40;3.92;;;19.10;94.20;;;;;;5054845;28;20178;-84
2022/09/06 00:52:08;;;;;;;5.57;3.95;;;19.10;94.10;;;;;;5036693;28;20198;-84
2022/09/06 00:54:34;;;;;;;5.47;3.80;;;19.10;94.00;;;;;;5047219;28;20524;-84
2022/09/06 00:57:02;;;;;;;6.18;3.75;;;19.10;94.00;;;;;;5074765;28;20540;-85
2022/09/06 00:59:30;;;;;;;5.85;3.60;;;19.00;94.20;;;;;;5525298;22;20241;-84
2022/09/06 01:01:56;;;;;;;4.65;3.92;;;19.00;94.10;;;;;;5014075;28;20194;-85
2022/09/06 01:04:23;;;;;;;5.32;4.15;;;19.00;94.00;;;;;;5013833;28;20214;-84
2022/09/06 01:07:14;;;;;;;4.47;3.92;;;19.00;94.00;;;;;;5015261;28;20229;-84
2022/09/06 01:09:51;;;;;;;4.78;3.72;;;19.00;94.10;;;;;;5043711;28;20206;-85
2022/09/06 01:12:38;;;;;;;4.32;3.50;;;19.00;94.10;;;;;;5034634;28;20201;-84
2022/09/06 01:15:12;;;;;;;3.75;3.38;;;18.90;94.00;;;;;;5034513;28;20163;-84
2022/09/06 01:18:13;;;;;;;5.35;3.53;;;18.90;94.00;;;;;;5034703;28;20197;-84
2022/09/06 01:20:41;;;;;;;4.18;3.50;;;18.90;94.00;;;;;;5034587;28;20159;-84
2022/09/06 01:23:28;;;;;;;6.45;4.35;;;18.90;94.00;;;;;;5033478;28;20278;-84
2022/09/06 01:26:24;;;;;;;4.10;3.65;;;18.90;94.10;;;;;;5034388;28;20253;-84
2022/09/06 01:28:51;;;;;;;4.53;3.67;;;18.80;94.20;;;;;;5012455;28;20203;-84
2022/09/06 01:31:26;;;;;;;9.15;3.90;;;18.80;94.20;;;;;;5014300;28;20282;-84
2022/09/06 01:33:55;;;;;;;4.32;3.88;;;18.80;94.20;;;;;;5013448;28;20490;-84
2022/09/06 01:36:26;;;;;;;5.68;3.42;;;18.70;94.10;;;;;;5014725;28;20175;-85
2022/09/06 01:38:52;;;;;;;4.00;3.40;;;18.80;94.10;;;;;;5028598;28;20632;-84
2022/09/06 01:41:17;;;;;;;4.75;3.67;;;18.70;94.10;;;;;;5032609;28;20205;-82
2022/09/06 01:43:46;;;;;;;5.53;3.70;;;18.70;94.10;;;;;;5034359;28;20170;-83
2022/09/06 01:46:52;;;;;;;5.13;3.40;;;18.80;94.10;;;;;;5032823;28;20182;-83
2022/09/06 01:49:42;;;;;;;4.25;3.80;;;18.70;94.20;;;;;;5049529;28;20610;-83
2022/09/06 01:52:23;;;;;;;7.20;3.78;;;18.70;94.10;;;;;;5033859;28;20194;-84
2022/09/06 01:55:27;;;;;;;5.55;4.07;;;18.70;94.10;;;;;;5033450;28;20531;-84
2022/09/06 01:58:25;;;;;;;4.18;3.25;;;18.70;94.00;;;;;;5027805;28;20198;-83
2022/09/06 02:01:01;;;;;;;4.57;3.40;;;18.60;94.10;;;;;;5033073;28;20660;-84
2022/09/06 02:03:40;;;;;;;4.05;3.47;;;18.60;94.10;;;;;;5032929;28;20182;-83
2022/09/06 02:06:13;;;;;;;4.35;3.70;;;18.50;94.10;;;;;;5032148;28;20201;-83
2022/09/06 02:08:49;;;;;;;4.35;3.95;;;18.60;94.00;;;;;;5033398;28;20230;-83
2022/09/06 02:11:16;;;;;;;6.18;3.20;;;18.60;93.90;;;;;;5033481;28;20217;-83
2022/09/06 02:13:49;;;;;;;3.53;3.00;;;18.60;93.80;;;;;;5033314;28;20179;-82
2022/09/06 02:16:20;;;;;;;4.85;3.60;;;18.60;93.90;;;;;;5031848;28;20274;-82
2022/09/06 02:18:55;;;;;;;4.28;3.40;;;18.50;93.80;;;;;;5033169;28;20581;-84
2022/09/06 02:21:28;;;;;;;4.18;3.33;;;18.50;93.80;;;;;;5032192;28;20222;-83
2022/09/06 02:23:56;;;;;;;5.50;3.30;;;18.50;93.80;;;;;;5033154;28;20680;-83
2022/09/06 02:26:29;;;;;;;4.68;3.50;;;18.50;93.80;;;;;;5033218;28;20194;-83
2022/09/06 02:28:55;;;;;;;3.47;3.05;;;18.50;93.80;;;;;;5033029;28;20175;-84
2022/09/06 02:31:29;;;;;;;5.00;3.30;;;18.50;93.60;;;;;;5033000;28;20218;-83
2022/09/06 02:33:55;;;;;;;4.65;3.50;;;18.50;93.60;;;;;;5033014;28;20175;-81
2022/09/06 02:36:21;;;;;;;5.97;3.30;;;18.40;93.60;;;;;;5024985;28;20194;-84
2022/09/06 02:38:47;;;;;;;3.70;3.13;;;18.40;93.60;;;;;;5032913;28;20183;-82
2022/09/06 02:41:15;;;;;;;6.25;3.58;;;18.40;93.50;;;;;;5033076;28;20240;-83
2022/09/06 02:43:42;;;;;;;5.10;3.20;;;18.40;93.40;;;;;;5033120;28;20625;-83
2022/09/06 02:46:08;;;;;;;4.60;3.35;;;18.40;93.10;;;;;;5032510;28;20202;-84
2022/09/06 02:48:33;;;;;;;5.13;2.80;;;18.40;92.90;;;;;;5030260;28;20213;-84
2022/09/06 02:51:07;;;;;;;4.38;3.17;;;18.30;93.00;;;;;;5031631;28;20218;-83
2022/09/06 02:53:34;;;;;;;5.80;3.10;;;18.30;93.10;;;;;;5032901;28;20236;-82
2022/09/06 02:56:00;;;;;;;3.30;2.80;;;18.30;92.90;;;;;;5032978;28;20187;-83
2022/09/06 02:58:26;;;;;;;4.38;2.88;;;18.30;93.10;;;;;;5032998;28;20191;-83
2022/09/06 03:00:52;;;;;;;3.53;2.80;;;18.20;92.70;;;;;;5031101;28;20226;-82
2022/09/06 03:03:19;;;;;;;3.38;3.08;;;18.20;92.70;;;;;;5024892;28;20593;-83
2022/09/06 03:05:50;;;;;;;6.78;2.95;;;18.20;92.60;;;;;;5032994;28;20236;-83
2022/09/06 03:08:17;;;;;;;7.38;3.50;;;18.20;92.60;;;;;;5032927;28;20194;-82
2022/09/06 03:10:54;;;;;;;3.60;2.92;;;18.20;92.30;;;;;;5032634;28;20528;-82
2022/09/06 03:13:21;;;;;;;7.90;3.08;;;18.20;92.60;;;;;;5032577;28;20597;-83
2022/09/06 03:15:51;;;;;;;4.10;3.10;;;18.10;92.40;;;;;;5034354;28;20625;-83
2022/09/06 03:18:17;;;;;;;5.65;2.70;;;18.10;92.50;;;;;;5036646;28;20226;-83
2022/09/06 03:20:43;;;;;;;5.55;3.17;;;18.10;92.20;;;;;;5036394;28;20312;-83
2022/09/06 03:23:08;;;;;;;4.78;3.25;;;18.10;92.30;;;;;;5035074;28;20217;-83
2022/09/06 03:25:34;;;;;;;5.18;2.70;;;18.10;92.50;;;;;;5036235;28;20182;-83
2022/09/06 03:28:00;;;;;;;3.60;2.67;;;18.10;92.10;;;;;;5035241;28;20210;-83
2022/09/06 03:30:26;;;;;;;3.75;2.90;;;18.10;92.30;;;;;;5036098;28;20210;-84
2022/09/06 03:32:51;;;;;;;5.43;2.80;;;18.00;92.00;;;;;;5036184;28;20288;-83
2022/09/06 03:35:17;;;;;;;2.90;2.60;;;18.00;92.00;;;;;;5036277;28;20183;-82
2022/09/06 03:37:43;;;;;;;6.22;2.95;;;18.00;92.00;;;;;;5036200;28;20214;-84
2022/09/06 03:40:09;;;;;;;3.63;2.67;;;18.00;91.80;;;;;;5034788;28;20652;-84
2022/09/06 03:42:35;;;;;;;4.32;2.80;;;18.00;91.80;;;;;;5035979;28;20210;-84
2022/09/06 03:45:00;;;;;;;4.85;2.90;;;17.90;91.80;;;;;;5034612;28;20209;-84
2022/09/06 03:47:26;;;;;;;5.72;2.85;;;17.90;91.90;;;;;;5034870;28;20190;-82
2022/09/06 03:49:52;;;;;;;3.72;2.70;;;17.90;91.80;;;;;;5035865;28;20242;-82
2022/09/06 03:52:17;;;;;;;3.05;2.55;;;17.90;91.70;;;;;;5035789;28;20190;-83
2022/09/06 03:54:43;;;;;;;4.50;2.58;;;17.90;91.80;;;;;;5034454;28;20656;-83
2022/09/06 03:57:09;;;;;;;3.92;2.67;;;17.90;91.70;;;;;;5027655;28;20195;-82
2022/09/06 03:59:34;;;;;;;3.30;2.80;;;17.80;91.90;;;;;;5035349;28;20226;-83
2022/09/06 04:02:00;;;;;;;4.82;2.88;;;17.80;91.90;;;;;;5035724;28;20179;-82
2022/09/06 04:04:26;;;;;;;6.07;2.78;;;17.80;91.70;;;;;;5035827;28;20190;-83
2022/09/06 04:06:51;;;;;;;5.57;2.75;;;17.80;91.50;;;;;;5035718;28;20560;-83
2022/09/06 04:09:17;;;;;;;4.65;2.70;;;17.70;91.90;;;;;;5035559;28;20875;-82
2022/09/06 04:11:42;;;;;;;5.75;2.40;;;17.70;91.90;;;;;;5035671;28;20252;-84
2022/09/06 04:14:08;;;;;;;3.85;2.80;;;17.80;91.60;;;;;;5035429;28;20174;-83
2022/09/06 04:16:34;;;;;;;4.13;2.60;;;17.80;91.70;;;;;;5035280;28;20206;-84
2022/09/06 04:19:01;;;;;;;7.20;3.28;;;17.80;91.50;;;;;;5033723;28;20229;-83
2022/09/06 04:21:27;;;;;;;9.27;2.67;;;17.80;91.20;;;;;;5034491;28;20186;-84
2022/09/06 04:23:52;;;;;;;6.00;2.63;;;17.70;91.40;;;;;;5035780;28;20182;-84
2022/09/06 04:26:18;;;;;;;4.35;2.55;;;17.70;91.30;;;;;;5034306;28;20175;-84
2022/09/06 04:28:44;;;;;;;4.35;2.42;;;17.70;91.60;;;;;;5035070;28;20175;-85
2022/09/06 04:31:09;;;;;;;3.28;2.38;;;17.60;91.50;;;;;;5035392;28;20218;-83
2022/09/06 04:33:37;;;;;;;2.95;2.50;;;17.70;91.20;;;;;;5034749;28;20189;-83
2022/09/06 04:36:05;;;;;;;4.75;2.85;;;17.60;91.30;;;;;;5035595;28;20202;-84
2022/09/06 04:38:38;;;;;;;4.35;2.50;;;17.60;91.20;;;;;;5035656;28;20563;-82
2022/09/06 04:41:05;;;;;;;3.75;2.53;;;17.60;91.10;;;;;;5034399;28;20171;-83
2022/09/06 04:43:31;;;;;;;5.07;2.78;;;17.50;91.20;;;;;;5034165;28;20253;-83
2022/09/06 04:46:18;;;;;;;6.00;2.53;;;17.50;91.20;;;;;;5035483;28;20175;-84
2022/09/06 04:48:44;;;;;;;5.53;2.70;;;17.50;91.00;;;;;;5035149;28;20170;-82
2022/09/06 04:51:10;;;;;;;3.63;2.47;;;17.50;91.00;;;;;;5035253;28;20205;-83
2022/09/06 04:53:35;;;;;;;6.47;2.40;;;17.50;91.20;;;;;;5035384;28;20189;-83
2022/09/06 04:56:01;;;;;;;4.53;2.30;;;17.50;91.20;;;;;;5035417;28;20629;-84
2022/09/06 04:58:27;;;;;;;5.25;2.50;;;17.40;91.00;;;;;;5034879;28;20175;-83
2022/09/06 05:00:52;;;;;;;5.45;2.22;;;17.40;90.90;;;;;;5034933;28;20274;-83
2022/09/06 05:03:18;;;;;;;6.50;2.20;;;17.40;90.90;;;;;;5034618;28;20683;-82
2022/09/06 05:05:44;;;;;;;3.25;2.20;;;17.40;91.10;;;;;;5035098;28;20181;-85
2022/09/06 05:08:09;;;;;;;5.00;2.65;;;17.40;91.10;;;;;;5035133;28;20262;-85
2022/09/06 05:10:35;;;;;;;5.95;2.88;;;17.40;91.00;;;;;;5034788;28;20954;-85
2022/09/06 05:13:01;;;;;;;2.58;2.13;;;17.40;90.80;;;;;;5034855;28;20182;-84
2022/09/06 05:15:26;;;;;;;2.80;2.15;;;17.30;91.10;;;;;;5034783;28;20175;-84
2022/09/06 05:17:52;;;;;;;5.05;2.50;;;17.30;90.90;;;;;;5034501;28;20167;-84
2022/09/06 05:20:18;;;;;;;4.47;2.30;;;17.30;91.10;;;;;;5033376;28;20185;-83
2022/09/06 05:22:52;;;;;;;5.32;2.45;;;17.30;90.90;;;;;;5034235;28;20187;-83
2022/09/06 05:25:17;;;;;;;4.93;2.00;;;17.30;91.00;;;;;;5033468;28;20178;-82
2022/09/06 05:27:43;;;;;;;10.93;2.75;;;17.30;90.90;;;;;;5034258;28;20565;-86
2022/09/06 05:30:09;;;;;;;3.17;2.35;;;17.30;90.90;;;;;;5033115;28;20213;-84
2022/09/06 05:32:35;;;;;;;7.55;2.47;;;17.20;90.80;;;;;;5034120;28;20198;-83
2022/09/06 05:35:00;;;;;;;4.65;2.40;;;17.20;91.10;;;;;;5034311;28;20214;-84
2022/09/06 05:37:26;;;;;;;5.65;2.30;;;17.20;91.10;;;;;;5034010;28;20182;-83
2022/09/06 05:39:52;;;;;;;3.72;2.10;;;17.20;91.10;;;;;;5033031;28;20178;-84
2022/09/06 05:42:17;;;;;;;4.95;2.15;;;17.20;91.10;;;;;;5032451;28;20636;-84
2022/09/06 05:44:43;;;;;;;5.30;2.40;;;17.20;91.10;;;;;;5033535;28;20288;-84
2022/09/06 05:47:08;;;;;;;5.05;2.60;;;17.20;90.80;;;;;;5033938;28;20167;-82
2022/09/06 05:49:34;;;;;;;3.80;2.30;;;17.20;90.90;;;;;;5032627;28;20178;-84
2022/09/06 05:52:00;;;;;;;5.05;2.42;;;17.30;91.00;;;;;;5034185;28;20266;-82
2022/09/06 05:54:25;;;;;;;2.90;2.13;;;17.20;91.10;;;;;;5032761;28;20534;-83
2022/09/06 05:56:51;;;;;;;6.10;2.50;;;17.20;91.00;;;;;;5026580;28;20217;-84
2022/09/06 05:59:17;;;;;;;4.70;2.30;;;17.30;91.00;;;;;;5031895;28;20229;-83
2022/09/06 06:01:52;;;;;;;3.97;2.13;;;17.20;90.90;;;;;;5046959;28;20274;-84
2022/09/06 06:04:18;;;;;;;3.42;2.45;;;17.20;91.10;;;;;;5036566;28;20500;-83
2022/09/06 06:06:45;;;;;;;3.78;2.25;;;17.20;90.90;;;;;;5038154;28;20190;-82
2022/09/06 06:09:12;;;;;;;3.95;2.13;;;17.20;91.20;;;;;;5032652;28;20214;-82
2022/09/06 06:11:37;;;;;;;11.18;2.40;;;17.20;90.80;;;;;;5032426;28;20206;-83
2022/09/06 06:14:04;;;;;;;3.55;2.40;;;17.20;91.00;;;;;;5033308;28;20178;-82
2022/09/06 06:16:30;;;;;;;3.75;2.10;;;17.20;90.90;;;;;;5033885;28;20170;-84
2022/09/06 06:18:55;;;;;;;5.97;2.17;;;17.20;90.60;;;;;;5033206;28;20557;-83
2022/09/06 06:21:25;;;;;;;6.93;2.55;;;17.30;90.70;;;;;;5032417;28;20186;-83
2022/09/06 06:23:53;;;;;;;3.22;2.33;;;17.30;91.10;;;;;;5032483;28;20185;-83
2022/09/06 06:26:19;;;;;;;6.13;2.30;;;17.20;90.80;;;;;;5033614;28;20174;-83
2022/09/06 06:28:45;;;;;;;6.82;2.25;;;17.30;90.80;;;;;;5032433;28;20682;-84
2022/09/06 06:31:11;;;;;;;4.60;2.20;;;17.20;90.70;;;;;;5032226;28;20221;-83
2022/09/06 06:33:38;;;;;;;3.22;2.30;;;17.20;90.90;;;;;;5032166;28;20186;-83
2022/09/06 06:36:12;;;;;;;6.35;2.88;;;17.20;91.00;;;;;;5048809;28;20178;-83
2022/09/06 06:38:39;;;;;;;5.00;2.00;;;17.30;90.90;;;;;;5032536;28;20217;-83
2022/09/06 06:41:07;;;;;;;5.32;2.35;;;17.30;90.60;;;;;;5032788;28;20201;-85
2022/09/06 06:43:36;;;;;;;4.05;2.20;;;17.30;90.70;;;;;;5033501;28;20179;-84
2022/09/06 06:46:10;;;;;;;6.03;2.30;;;17.30;90.80;;;;;;5033639;28;20174;-84
2022/09/06 06:48:39;;;;;;;2.83;2.05;;;17.30;90.80;;;;;;5032020;28;20174;-83
2022/09/06 06:51:05;;;;;;;5.53;2.20;;;17.40;90.90;;;;;;5034538;28;20217;-85
2022/09/06 06:53:31;;;;;;;5.50;2.20;;;17.40;90.70;;;;;;5036609;28;20581;-83
2022/09/06 06:55:58;;;;;;;6.07;1.92;;;17.40;90.80;;;;;;5036817;28;20205;-85
2022/09/06 06:58:23;;;;;;;3.90;2.20;;;17.40;90.60;;;;;;5035652;28;20178;-84
2022/09/06 07:00:49;;;;;;;3.05;2.10;;;17.50;90.90;;;;;;5036720;28;20699;-83
2022/09/06 07:03:15;;;;;;;8.02;2.38;;;17.50;90.90;;;;;;5036727;28;20185;-83
2022/09/06 07:05:45;;;;;;;2.97;2.20;;;17.60;90.50;;;;;;5037135;28;20217;-84
2022/09/06 07:08:11;;;;;;;4.90;2.10;;;17.60;90.70;;;;;;5037090;28;20167;-84
2022/09/06 07:10:37;;;;;;;7.93;2.55;;;17.60;90.40;;;;;;5035673;28;20218;-84
2022/09/06 07:13:03;;;;;;;4.32;2.22;;;17.60;90.50;;;;;;5037164;28;20178;-84
2022/09/06 07:15:29;;;;;;;7.30;1.98;;;17.70;90.50;;;;;;5035536;28;20281;-84
2022/09/06 07:17:55;;;;;;;5.00;2.22;;;17.70;90.40;;;;;;5036806;28;20266;-84
2022/09/06 07:20:22;;;;;;;5.22;2.10;;;17.70;90.40;;;;;;5035607;28;20629;-85
2022/09/06 07:22:58;;;;;;;3.58;2.20;;;17.70;90.40;;;;;;5036849;28;20205;-84
2022/09/06 07:25:24;;;;;;;8.43;2.17;;;17.70;90.80;;;;;;5035592;28;20174;-83
2022/09/06 07:28:05;;;;;;;3.53;2.05;;;17.80;90.40;;;;;;5035709;28;20171;-84
2022/09/06 07:30:33;;;;;;;6.10;2.10;;;17.80;90.20;;;;;;5035834;28;20206;-83
2022/09/06 07:32:59;;;;;;;9.60;2.20;;;17.80;90.30;;;;;;5035512;28;20187;-83
2022/09/06 07:35:25;;;;;;;4.43;2.05;;;17.80;90.30;;;;;;5036825;28;20167;-84
2022/09/06 07:37:55;;;;;;;10.15;2.20;;;17.80;90.40;;;;;;5036661;28;20216;-84
2022/09/06 07:40:22;;;;;;;5.78;2.25;;;17.80;90.40;;;;;;5034657;28;20190;-82
2022/09/06 07:42:48;;;;;;;5.00;2.20;;;17.90;90.20;;;;;;5036529;28;20178;-84
2022/09/06 07:45:14;;;;;;;5.18;2.13;;;17.90;90.50;;;;;;5035232;28;20182;-84
2022/09/06 07:47:39;;;;;;;3.15;2.10;;;17.90;90.20;;;;;;5036324;28;20173;-84
2022/09/06 07:50:05;;;;;;;3.40;2.10;;;17.90;90.50;;;;;;5036396;28;20545;-83
2022/09/06 07:52:31;;;;;;;4.65;2.22;;;17.90;90.50;;;;;;5036322;28;20182;-83
2022/09/06 07:54:56;;;;;;;3.80;2.25;;;17.90;90.70;;;;;;5035959;28;20189;-84
2022/09/06 07:57:22;;;;;;;2.92;2.10;;;17.90;90.40;;;;;;5036346;28;20610;-84
2022/09/06 07:59:48;;;;;;;5.63;2.22;;;18.00;90.40;;;;;;5036123;28;20246;-83
2022/09/06 08:02:15;;;;;;;3.90;2.10;;;17.90;90.40;;;;;;5034461;28;20513;-84
2022/09/06 08:04:41;;;;;;;4.22;2.30;;;18.00;90.40;;;;;;5034893;28;20213;-82
2022/09/06 08:07:07;;;;;;;5.43;2.20;;;18.00;90.20;;;;;;5036158;28;20206;-84
2022/09/06 08:09:33;;;;;;;7.32;2.22;;;18.00;90.40;;;;;;5035765;28;20167;-84
2022/09/06 08:11:58;;;;;;;6.82;2.30;;;18.00;90.70;;;;;;5034698;28;20602;-83
2022/09/06 08:14:24;;;;;;;5.25;1.85;;;18.00;90.70;;;;;;5034516;28;20179;-85
2022/09/06 08:16:50;;;;;;;4.80;2.03;;;18.00;90.60;;;;;;5035618;28;20210;-82
2022/09/06 08:19:17;;;;;;;4.60;2.15;;;18.00;90.50;;;;;;5035884;28;20661;-83
2022/09/06 08:21:42;;;;;;;5.90;2.05;;;18.10;90.30;;;;;;5035422;28;20178;-82
2022/09/06 08:24:11;;;;;;;5.07;2.25;;;18.10;90.60;;;;;;5034394;28;20182;-83
2022/09/06 08:26:44;;;;;;;4.35;2.15;;;18.10;90.70;;;;;;5035877;28;20620;-83
2022/09/06 08:29:10;;;;;;;7.60;2.17;;;18.20;90.90;;;;;;5035603;28;20163;-82
2022/09/06 08:31:38;;;;;;;5.30;2.10;;;18.30;90.60;;;;;;5035416;28;20207;-81
2022/09/06 08:34:04;;;;;;;7.95;2.08;;;18.40;90.70;;;;;;5035352;28;20231;-83
2022/09/06 08:36:30;;;;;;;6.60;1.88;;;18.40;90.90;;;;;;5033901;28;20688;-83
2022/09/06 08:38:57;;;;;;;7.65;2.10;;;18.50;90.50;;;;;;5035488;28;20179;-82
2022/09/06 08:41:37;;;;;;;4.78;1.90;;;18.50;90.10;;;;;;5033576;28;20596;-82
2022/09/06 08:44:20;;;;;;;8.02;1.92;;;18.50;90.30;;;;;;5015498;28;20167;-81
2022/09/06 08:47:02;;;;;;;5.00;2.15;;;18.60;90.50;;;;;;5015704;28;20179;-82
2022/09/06 08:49:53;;;;;;;6.60;2.30;;;18.50;89.90;;;;;;5015467;28;20161;-82
2022/09/06 08:52:46;;;;;;;3.80;2.28;;;18.50;90.50;;;;;;5030837;28;20187;-82
2022/09/06 08:55:28;;;;;;;5.28;2.20;;;18.50;89.70;;;;;;5014223;28;20171;-82
2022/09/06 08:58:09;;;;;;;8.25;2.17;;;18.60;89.80;;;;;;5014483;28;20179;-82
2022/09/06 09:00:37;;;;;;;6.60;2.17;;;18.60;90.00;;;;;;5030134;28;20281;-82
2022/09/06 09:03:13;;;;;;;8.35;1.90;;;18.60;90.20;;;;;;5025863;28;20603;-83
2022/09/06 09:05:41;;;;;;;8.70;2.50;;;18.70;90.60;;;;;;5034277;28;20181;-83
2022/09/06 09:08:12;;;;;;;4.25;2.17;;;18.80;90.30;;;;;;5033474;28;20186;-84
2022/09/06 09:10:47;;;;;;;5.38;2.13;;;18.80;90.50;;;;;;5034717;28;20676;-83
2022/09/06 09:13:38;;;;;;;5.38;2.40;;;18.80;90.40;;;;;;5029086;28;20171;-84
2022/09/06 09:16:04;;;;;;;6.53;2.00;;;18.90;90.40;;;;;;5034101;28;20175;-83
2022/09/06 09:18:35;;;;;;;3.40;2.20;;;18.90;90.10;;;;;;5034490;28;20675;-83
2022/09/06 09:21:01;;;;;;;5.80;2.10;;;19.00;90.30;;;;;;5033053;28;20174;-83
2022/09/06 09:23:29;;;;;;;8.25;2.00;;;19.00;90.10;;;;;;5033266;28;20185;-83
2022/09/06 09:26:01;;;;;;;3.97;2.33;;;19.20;90.30;;;;;;5034286;28;20175;-82
2022/09/06 09:28:26;;;;;;;3.85;2.15;;;19.30;90.10;;;;;;5034700;28;20169;-82
2022/09/06 09:30:54;;;;;;;5.97;2.20;;;19.30;89.30;;;;;;5033787;28;20203;-82
2022/09/06 09:33:40;;;;;;;5.82;2.17;;;19.30;90.20;;;;;;5034006;28;20182;-84
2022/09/06 09:36:09;;;;;;;6.43;2.08;;;19.40;90.20;;;;;;5034128;28;20186;-83
2022/09/06 09:38:48;;;;;;;5.28;2.60;;;19.40;89.70;;;;;;5032818;28;20186;-84
2022/09/06 09:41:35;;;;;;;5.50;2.40;;;19.50;89.50;;;;;;5034067;28;20597;-83
2022/09/06 09:44:04;;;;;;;5.78;2.08;;;19.60;89.00;;;;;;5034211;28;20244;-83
2022/09/06 09:46:33;;;;;;;9.00;2.35;;;19.60;89.60;;;;;;5033249;28;20250;-83
2022/09/06 09:49:11;;;;;;;6.53;2.10;;;19.70;87.50;;;;;;5033115;28;20175;-82
2022/09/06 09:51:38;;;;;;;5.70;1.73;;;19.70;88.30;;;;;;5032778;28;20210;-82
2022/09/06 09:54:08;;;;;;;10.55;2.20;;;19.70;87.60;;;;;;5033943;28;20202;-81
2022/09/06 09:56:45;;;;;;;10.48;2.15;;;19.70;88.30;;;;;;5033729;28;20202;-83
2022/09/06 09:59:43;;;;;;;9.05;1.98;;;19.80;88.70;;;;;;5033808;28;20210;-84
2022/09/06 10:02:34;;;;;;;7.90;2.00;;;20.00;88.30;;;;;;5028298;28;20648;-82
2022/09/06 10:05:10;;;;;;;3.80;1.90;;;20.00;87.20;;;;;;5031423;28;20257;-83
2022/09/06 10:07:49;;;;;;;3.35;1.88;;;20.10;87.10;;;;;;5030641;28;20197;-84
2022/09/06 10:10:27;;;;;;;7.95;1.92;;;20.20;88.50;;;;;;5033247;28;20206;-81
2022/09/06 10:13:25;;;;;;;8.52;1.83;;;20.20;86.00;;;;;;5032456;28;20524;-83
2022/09/06 10:15:53;;;;;;;8.68;2.05;;;20.30;86.90;;;;;;5033443;28;20163;-82
2022/09/06 10:18:28;;;;;;;9.68;2.20;;;20.30;86.40;;;;;;5033461;28;20220;-83
2022/09/06 10:21:01;;;;;;;3.20;1.63;;;20.40;85.80;;;;;;5033427;28;20154;-83
2022/09/06 10:23:30;;;;;;;4.72;2.28;;;20.50;86.50;;;;;;5031567;28;20202;-85
2022/09/06 10:26:18;;;;;;;4.85;1.80;;;20.70;86.10;;;;;;5031952;28;20201;-84
2022/09/06 10:28:44;;;;;;;4.75;2.50;;;20.90;85.70;;;;;;5023158;28;20210;-84
2022/09/06 10:31:29;;;;;;;4.82;1.80;;;20.90;85.50;;;;;;5032542;28;20229;-84
2022/09/06 10:34:16;;;;;;;3.42;1.70;;;20.90;85.70;;;;;;5012456;28;20171;-84
2022/09/06 10:37:06;;;;;;;3.15;1.80;;;20.90;85.40;;;;;;5013921;28;20210;-84
2022/09/06 10:39:56;;;;;;;3.58;1.95;;;20.90;85.50;;;;;;5014129;28;20202;-85
2022/09/06 10:42:48;;;;;;;6.60;2.40;;;20.90;85.60;;;;;;5033546;28;20174;-83
2022/09/06 10:45:30;;;;;;;7.50;1.77;;;21.00;85.80;;;;;;5032423;28;20201;-83
2022/09/06 10:47:59;;;;;;;9.02;2.17;;;21.10;84.70;;;;;;5013590;28;20182;-84
2022/09/06 10:50:33;;;;;;;11.88;2.38;;;21.20;85.30;;;;;;5012781;28;20242;-84
2022/09/06 10:53:12;;;;;;;11.60;2.58;;;21.40;85.30;;;;;;5013770;28;20210;-83
2022/09/06 10:55:39;;;;;;;10.07;2.05;;;21.60;83.70;;;;;;5013895;28;20163;-84
2022/09/06 10:58:09;;;;;;;8.50;2.22;;;21.70;85.50;;;;;;5013726;28;20210;-84
2022/09/06 11:00:48;;;;;;;4.60;2.25;;;21.70;84.40;;;;;;5012334;28;20330;-83
2022/09/06 11:03:30;;;;;;;4.50;2.08;;;21.80;84.60;;;;;;5030855;28;20531;-83
2022/09/06 11:06:04;;;;;;;3.33;2.05;;;21.60;85.00;;;;;;5032087;28;20196;-82
2022/09/06 11:08:56;;;;;;;7.63;2.15;;;21.40;86.60;;;;;;5033376;28;20174;-82
2022/09/06 11:11:37;;;;;;;8.35;2.50;;;21.50;86.20;;;;;;5033236;28;20207;-83
2022/09/06 11:14:10;;;;;;;5.63;2.33;;;21.50;86.70;;;;;;5033336;28;20641;-84
2022/09/06 11:16:52;;;;;;;4.90;2.28;;;21.50;85.70;;;;;;5033353;28;20171;-83
2022/09/06 11:19:24;;;;;;;4.57;1.83;;;21.50;86.20;;;;;;5033112;28;20224;-82
2022/09/06 11:22:19;;;;;;;7.50;1.95;;;21.60;86.70;;;;;;5033289;28;20177;-83
2022/09/06 11:24:47;;;;;;;6.70;2.38;;;21.50;86.60;;;;;;5032738;28;20582;-83
2022/09/06 11:27:29;;;;;;;5.57;2.38;;;21.50;86.60;;;;;;5032825;28;20207;-83
2022/09/06 11:29:56;;;;;;;5.22;2.20;;;21.50;86.70;;;;;;5033063;28;20174;-82
2022/09/06 11:32:32;;;;;;;3.00;2.20;;;21.60;86.40;;;;;;5031976;28;20190;-83
2022/09/06 11:35:00;;;;;;;4.53;2.05;;;21.70;86.00;;;;;;5032840;28;20155;-83
2022/09/06 11:37:27;;;;;;;4.88;2.40;;;21.60;86.50;;;;;;5034226;28;20183;-82
2022/09/06 11:40:24;;;;;;;6.88;2.42;;;21.60;85.90;;;;;;5036341;28;20194;-83
2022/09/06 11:42:50;;;;;;;4.78;1.90;;;21.50;86.00;;;;;;5036090;28;20190;-82
2022/09/06 11:45:38;;;;;;;3.22;2.00;;;21.40;87.30;;;;;;5036360;28;20175;-83
2022/09/06 11:48:58;;;;;;;4.15;2.50;;;21.40;87.00;;;;;;5034820;28;20257;-83
2022/09/06 11:51:40;;;;;;;5.50;2.10;;;21.60;87.80;;;;;;4978215;28;20255;-83
2022/09/06 11:54:11;;;;;;;5.97;2.65;;;21.70;87.40;;;;;;5036347;28;20174;-83
2022/09/06 11:57:12;;;;;;;5.35;2.75;;;21.80;87.10;;;;;;5036521;28;20177;-83
2022/09/06 11:59:53;;;;;;;5.03;2.55;;;21.90;86.30;;;;;;5033490;28;20311;-83
2022/09/06 12:02:33;;;;;;;5.00;2.60;;;22.00;86.80;;;;;;5022119;28;20196;-84
2022/09/06 12:04:59;;;;;;;5.60;2.28;;;22.00;86.50;;;;;;5034951;28;20174;-84
2022/09/06 12:07:26;;;;;;;8.90;2.78;;;22.10;86.40;;;;;;5035849;28;20185;-84
2022/09/06 12:09:52;;;;;;;3.42;2.50;;;22.10;85.60;;;;;;5034281;28;20205;-83
2022/09/06 12:12:47;;;;;;;8.23;2.47;;;22.10;85.90;;;;;;5036164;28;20187;-84
2022/09/06 12:15:30;;;;;;;7.03;2.30;;;22.20;87.30;;;;;;5034808;28;20233;-84
2022/09/06 12:17:59;;;;;;;5.57;2.30;;;22.30;87.10;;;;;;5035857;28;20209;-84
2022/09/06 12:20:46;;;;;;;4.07;2.50;;;22.50;87.00;;;;;;5035282;28;20186;-84
2022/09/06 12:23:35;;;;;;;6.18;2.70;;;22.50;86.40;;;;;;5033972;28;20178;-85
2022/09/06 12:26:08;;;;;;;4.18;2.60;;;22.50;85.10;;;;;;5035403;28;20237;-84
2022/09/06 12:28:50;;;;;;;4.43;2.85;;;22.50;85.60;;;;;;5034155;28;20175;-83
2022/09/06 12:31:49;;;;;;;11.68;2.53;;;22.50;86.70;;;;;;5034259;28;20218;-83
2022/09/06 12:34:23;;;;;;;11.73;2.80;;;22.60;86.60;;;;;;5007960;28;20183;-83
2022/09/06 12:36:59;;;;;;;4.40;2.55;;;22.70;86.20;;;;;;5014629;28;20214;-83
2022/09/06 12:39:24;;;;;;;9.05;2.50;;;22.80;85.80;;;;;;5016365;28;20159;-84
2022/09/06 12:41:56;;;;;;;5.13;2.47;;;22.90;86.00;;;;;;5034070;28;20175;-84
2022/09/06 12:44:30;;;;;;;6.85;3.08;;;23.10;84.40;;;;;;5034184;28;20174;-84
2022/09/06 12:47:04;;;;;;;8.80;2.50;;;23.40;86.30;;;;;;5033858;28;20181;-83
2022/09/06 12:49:30;;;;;;;7.32;2.50;;;23.60;83.40;;;;;;5033899;28;20166;-83
2022/09/06 12:52:11;;;;;;;5.85;2.90;;;23.70;83.90;;;;;;5035060;28;20213;-84
2022/09/06 12:54:48;;;;;;;4.20;2.55;;;23.80;82.90;;;;;;5033775;28;20617;-83
2022/09/06 12:57:25;;;;;;;3.72;2.65;;;23.80;83.00;;;;;;5034690;28;20190;-82
2022/09/06 12:59:56;;;;;;;3.85;2.80;;;23.80;84.00;;;;;;5032945;28;20558;-83
2022/09/06 13:02:29;;;;;;;9.68;2.55;;;23.80;83.50;;;;;;5033383;28;20276;-82
2022/09/06 13:05:04;;;;;;;3.50;2.28;;;23.90;83.70;;;;;;5034058;28;20186;-86
2022/09/06 13:07:34;;;;;;;6.13;2.40;;;24.00;83.30;;;;;;5030751;28;20609;-85